sensor_id;sensor_type;location;lat;lon;timestamp;P1;durP1;ratioP1;P2;durP2;ratioP2
4389;SDS011;2209;48.982;8.406;2022-07-29T00:02:03;5.30;;;4.80;;
4389;SDS011;2209;48.982;8.406;2022-07-29T00:04:26;6.07;;;5.07;;
4389;SDS011;2209;48.982;8.406;2022-07-29T00:06:48;5.80;;;4.80;;
4389;SDS011;2209;48.982;8.406;2022-07-29T00:09:10;4.27;;;3.87;;
4389;SDS011;2209;48.982;8.406;2022-07-29T00:11:33;5.40;;;4.90;;
4389;SDS011;2209;48.982;8.406;2022-07-29T00:13:57;4.83;;;4.53;;
4389;SDS011;2209;48.982;8.406;2022-07-29T00:16:20;4.50;;;4.10;;
4389;SDS011;2209;48.982;8.406;2022-07-29T00:18:43;5.17;;;4.77;;
4389;SDS011;2209;48.982;8.406;2022-07-29T00:21:06;5.60;;;5.10;;
4389;SDS011;2209;48.982;8.406;2022-07-29T00:23:29;4.80;;;4.40;;
4389;SDS011;2209;48.982;8.406;2022-07-29T00:25:51;5.13;;;4.73;;
4389;SDS011;2209;48.982;8.406;2022-07-29T00:28:13;8.77;;;4.50;;
4389;SDS011;2209;48.982;8.406;2022-07-29T00:30:36;4.83;;;4.33;;
4389;SDS011;2209;48.982;8.406;2022-07-29T00:32:58;5.90;;;5.40;;
4389;SDS011;2209;48.982;8.406;2022-07-29T00:35:20;5.43;;;4.93;;
4389;SDS011;2209;48.982;8.406;2022-07-29T00:38:00;5.30;;;4.80;;
4389;SDS011;2209;48.982;8.406;2022-07-29T00:40:23;5.70;;;4.70;;
4389;SDS011;2209;48.982;8.406;2022-07-29T00:42:48;6.73;;;5.17;;
4389;SDS011;2209;48.982;8.406;2022-07-29T00:45:18;6.67;;;4.83;;
4389;SDS011;2209;48.982;8.406;2022-07-29T00:47:43;6.37;;;4.90;;
4389;SDS011;2209;48.982;8.406;2022-07-29T00:50:09;4.60;;;4.30;;
4389;SDS011;2209;48.982;8.406;2022-07-29T00:52:32;6.07;;;5.43;;
4389;SDS011;2209;48.982;8.406;2022-07-29T00:55:02;4.90;;;4.60;;
4389;SDS011;2209;48.982;8.406;2022-07-29T00:57:28;4.53;;;4.13;;
4389;SDS011;2209;48.982;8.406;2022-07-29T00:59:52;4.50;;;4.10;;
4389;SDS011;2209;48.982;8.406;2022-07-29T01:02:14;5.13;;;4.73;;
4389;SDS011;2209;48.982;8.406;2022-07-29T01:04:38;5.50;;;5.00;;
4389;SDS011;2209;48.982;8.406;2022-07-29T01:07:02;5.30;;;4.80;;
4389;SDS011;2209;48.982;8.406;2022-07-29T01:09:24;5.40;;;4.90;;
4389;SDS011;2209;48.982;8.406;2022-07-29T01:11:47;5.17;;;4.60;;
4389;SDS011;2209;48.982;8.406;2022-07-29T01:14:11;5.30;;;4.90;;
4389;SDS011;2209;48.982;8.406;2022-07-29T01:16:36;4.50;;;4.10;;
4389;SDS011;2209;48.982;8.406;2022-07-29T01:19:05;5.00;;;4.60;;
4389;SDS011;2209;48.982;8.406;2022-07-29T01:21:50;4.80;;;4.50;;
4389;SDS011;2209;48.982;8.406;2022-07-29T01:27:08;6.17;;;4.30;;
4389;SDS011;2209;48.982;8.406;2022-07-29T01:29:49;5.50;;;5.20;;
4389;SDS011;2209;48.982;8.406;2022-07-29T01:32:18;5.10;;;4.43;;
4389;SDS011;2209;48.982;8.406;2022-07-29T01:34:45;8.47;;;5.70;;
4389;SDS011;2209;48.982;8.406;2022-07-29T01:37:12;4.93;;;4.50;;
4389;SDS011;2209;48.982;8.406;2022-07-29T01:39:41;5.50;;;5.00;;
4389;SDS011;2209;48.982;8.406;2022-07-29T01:42:09;5.70;;;4.70;;
4389;SDS011;2209;48.982;8.406;2022-07-29T01:44:46;4.30;;;4.00;;
4389;SDS011;2209;48.982;8.406;2022-07-29T01:47:15;4.47;;;4.17;;
4389;SDS011;2209;48.982;8.406;2022-07-29T01:49:43;4.60;;;4.20;;
4389;SDS011;2209;48.982;8.406;2022-07-29T01:52:13;5.17;;;4.77;;
4389;SDS011;2209;48.982;8.406;2022-07-29T01:54:43;5.10;;;4.70;;
4389;SDS011;2209;48.982;8.406;2022-07-29T01:57:11;5.50;;;5.03;;
4389;SDS011;2209;48.982;8.406;2022-07-29T01:59:35;5.63;;;5.00;;
4389;SDS011;2209;48.982;8.406;2022-07-29T02:02:01;5.93;;;5.33;;
4389;SDS011;2209;48.982;8.406;2022-07-29T02:04:23;4.77;;;4.47;;
4389;SDS011;2209;48.982;8.406;2022-07-29T02:06:51;6.43;;;5.43;;
4389;SDS011;2209;48.982;8.406;2022-07-29T02:09:16;7.63;;;5.07;;
4389;SDS011;2209;48.982;8.406;2022-07-29T02:11:43;5.40;;;4.30;;
4389;SDS011;2209;48.982;8.406;2022-07-29T02:14:10;5.27;;;4.73;;
4389;SDS011;2209;48.982;8.406;2022-07-29T02:16:36;6.97;;;5.57;;
4389;SDS011;2209;48.982;8.406;2022-07-29T02:19:02;4.90;;;4.57;;
4389;SDS011;2209;48.982;8.406;2022-07-29T02:21:25;6.10;;;5.50;;
4389;SDS011;2209;48.982;8.406;2022-07-29T02:23:50;5.30;;;4.90;;
4389;SDS011;2209;48.982;8.406;2022-07-29T02:26:16;4.90;;;4.50;;
4389;SDS011;2209;48.982;8.406;2022-07-29T02:28:41;4.40;;;4.20;;
4389;SDS011;2209;48.982;8.406;2022-07-29T02:31:05;7.10;;;5.10;;
4389;SDS011;2209;48.982;8.406;2022-07-29T02:33:29;4.90;;;4.40;;
4389;SDS011;2209;48.982;8.406;2022-07-29T02:35:54;6.30;;;5.80;;
4389;SDS011;2209;48.982;8.406;2022-07-29T02:38:20;5.00;;;4.67;;
4389;SDS011;2209;48.982;8.406;2022-07-29T02:41:06;5.07;;;4.67;;
4389;SDS011;2209;48.982;8.406;2022-07-29T02:43:31;5.73;;;5.27;;
4389;SDS011;2209;48.982;8.406;2022-07-29T02:45:55;5.87;;;5.33;;
4389;SDS011;2209;48.982;8.406;2022-07-29T02:48:30;6.10;;;5.50;;
4389;SDS011;2209;48.982;8.406;2022-07-29T02:50:58;5.30;;;4.90;;
4389;SDS011;2209;48.982;8.406;2022-07-29T02:53:26;5.43;;;4.93;;
4389;SDS011;2209;48.982;8.406;2022-07-29T02:55:51;5.60;;;4.93;;
4389;SDS011;2209;48.982;8.406;2022-07-29T02:58:19;5.73;;;5.23;;
4389;SDS011;2209;48.982;8.406;2022-07-29T03:00:50;6.50;;;5.20;;
4389;SDS011;2209;48.982;8.406;2022-07-29T03:03:16;6.30;;;5.90;;
4389;SDS011;2209;48.982;8.406;2022-07-29T03:05:41;4.87;;;4.47;;
4389;SDS011;2209;48.982;8.406;2022-07-29T03:08:08;4.97;;;4.63;;
4389;SDS011;2209;48.982;8.406;2022-07-29T03:10:32;4.60;;;4.30;;
4389;SDS011;2209;48.982;8.406;2022-07-29T03:12:56;5.73;;;5.23;;
4389;SDS011;2209;48.982;8.406;2022-07-29T03:15:19;4.67;;;4.37;;
4389;SDS011;2209;48.982;8.406;2022-07-29T03:17:42;5.53;;;5.00;;
4389;SDS011;2209;48.982;8.406;2022-07-29T03:20:06;5.50;;;4.90;;
4389;SDS011;2209;48.982;8.406;2022-07-29T03:22:29;6.07;;;5.47;;
4389;SDS011;2209;48.982;8.406;2022-07-29T03:25:03;6.87;;;4.63;;
4389;SDS011;2209;48.982;8.406;2022-07-29T03:27:29;5.33;;;4.80;;
4389;SDS011;2209;48.982;8.406;2022-07-29T03:29:51;6.60;;;5.43;;
4389;SDS011;2209;48.982;8.406;2022-07-29T03:32:17;5.40;;;5.00;;
4389;SDS011;2209;48.982;8.406;2022-07-29T03:34:40;6.33;;;5.73;;
4389;SDS011;2209;48.982;8.406;2022-07-29T03:37:06;5.80;;;5.40;;
4389;SDS011;2209;48.982;8.406;2022-07-29T03:39:29;5.63;;;5.03;;
4389;SDS011;2209;48.982;8.406;2022-07-29T03:41:58;5.70;;;4.30;;
4389;SDS011;2209;48.982;8.406;2022-07-29T03:44:25;6.07;;;5.37;;
4389;SDS011;2209;48.982;8.406;2022-07-29T03:46:50;5.57;;;4.87;;
4389;SDS011;2209;48.982;8.406;2022-07-29T03:49:15;5.87;;;5.47;;
4389;SDS011;2209;48.982;8.406;2022-07-29T03:51:42;6.40;;;5.90;;
4389;SDS011;2209;48.982;8.406;2022-07-29T03:54:05;8.73;;;6.20;;
4389;SDS011;2209;48.982;8.406;2022-07-29T03:56:30;8.93;;;5.70;;
4389;SDS011;2209;48.982;8.406;2022-07-29T03:59:04;6.30;;;5.80;;
4389;SDS011;2209;48.982;8.406;2022-07-29T04:01:28;7.93;;;5.90;;
4389;SDS011;2209;48.982;8.406;2022-07-29T04:03:51;6.00;;;5.50;;
4389;SDS011;2209;48.982;8.406;2022-07-29T04:06:17;6.17;;;5.63;;
4389;SDS011;2209;48.982;8.406;2022-07-29T04:08:39;6.30;;;5.80;;
4389;SDS011;2209;48.982;8.406;2022-07-29T04:11:05;6.47;;;5.50;;
4389;SDS011;2209;48.982;8.406;2022-07-29T04:13:27;5.40;;;4.93;;
4389;SDS011;2209;48.982;8.406;2022-07-29T04:15:51;5.40;;;4.90;;
4389;SDS011;2209;48.982;8.406;2022-07-29T04:18:13;7.93;;;5.43;;
4389;SDS011;2209;48.982;8.406;2022-07-29T04:20:36;7.63;;;5.63;;
4389;SDS011;2209;48.982;8.406;2022-07-29T04:22:58;5.77;;;5.27;;
4389;SDS011;2209;48.982;8.406;2022-07-29T04:25:20;5.60;;;5.10;;
4389;SDS011;2209;48.982;8.406;2022-07-29T04:27:43;5.63;;;5.20;;
4389;SDS011;2209;48.982;8.406;2022-07-29T04:30:19;5.93;;;5.33;;
4389;SDS011;2209;48.982;8.406;2022-07-29T04:32:42;6.13;;;5.67;;
4389;SDS011;2209;48.982;8.406;2022-07-29T04:35:05;5.50;;;5.10;;
4389;SDS011;2209;48.982;8.406;2022-07-29T04:37:27;5.70;;;4.77;;
4389;SDS011;2209;48.982;8.406;2022-07-29T04:39:49;6.10;;;5.60;;
4389;SDS011;2209;48.982;8.406;2022-07-29T04:42:11;6.43;;;5.93;;
4389;SDS011;2209;48.982;8.406;2022-07-29T04:44:36;6.47;;;5.73;;
4389;SDS011;2209;48.982;8.406;2022-07-29T04:46:58;6.70;;;6.20;;
4389;SDS011;2209;48.982;8.406;2022-07-29T04:49:21;6.33;;;5.80;;
4389;SDS011;2209;48.982;8.406;2022-07-29T04:51:46;6.20;;;5.70;;
4389;SDS011;2209;48.982;8.406;2022-07-29T04:54:09;7.30;;;6.73;;
4389;SDS011;2209;48.982;8.406;2022-07-29T04:56:31;7.97;;;6.23;;
4389;SDS011;2209;48.982;8.406;2022-07-29T04:58:55;6.80;;;6.30;;
4389;SDS011;2209;48.982;8.406;2022-07-29T05:01:23;7.63;;;6.90;;
4389;SDS011;2209;48.982;8.406;2022-07-29T05:03:46;6.80;;;6.10;;
4389;SDS011;2209;48.982;8.406;2022-07-29T05:06:09;9.93;;;6.93;;
4389;SDS011;2209;48.982;8.406;2022-07-29T05:08:31;6.87;;;6.33;;
4389;SDS011;2209;48.982;8.406;2022-07-29T05:10:54;8.60;;;7.73;;
4389;SDS011;2209;48.982;8.406;2022-07-29T05:13:16;9.40;;;6.97;;
4389;SDS011;2209;48.982;8.406;2022-07-29T05:15:38;9.17;;;6.70;;
4389;SDS011;2209;48.982;8.406;2022-07-29T05:18:03;7.80;;;7.10;;
4389;SDS011;2209;48.982;8.406;2022-07-29T05:20:26;6.93;;;6.17;;
4389;SDS011;2209;48.982;8.406;2022-07-29T05:22:51;7.70;;;7.00;;
4389;SDS011;2209;48.982;8.406;2022-07-29T05:25:13;16.17;;;6.90;;
4389;SDS011;2209;48.982;8.406;2022-07-29T05:27:35;6.57;;;5.97;;
4389;SDS011;2209;48.982;8.406;2022-07-29T05:29:59;8.53;;;6.70;;
4389;SDS011;2209;48.982;8.406;2022-07-29T05:32:22;7.40;;;6.80;;
4389;SDS011;2209;48.982;8.406;2022-07-29T05:34:47;7.07;;;6.37;;
4389;SDS011;2209;48.982;8.406;2022-07-29T05:37:10;6.07;;;5.57;;
4389;SDS011;2209;48.982;8.406;2022-07-29T05:39:34;8.03;;;6.43;;
4389;SDS011;2209;48.982;8.406;2022-07-29T05:42:00;7.50;;;6.90;;
4389;SDS011;2209;48.982;8.406;2022-07-29T05:44:22;6.80;;;6.20;;
4389;SDS011;2209;48.982;8.406;2022-07-29T05:46:44;6.60;;;6.10;;
4389;SDS011;2209;48.982;8.406;2022-07-29T05:49:06;8.57;;;6.00;;
4389;SDS011;2209;48.982;8.406;2022-07-29T05:51:47;6.90;;;5.73;;
4389;SDS011;2209;48.982;8.406;2022-07-29T05:54:21;8.30;;;6.33;;
4389;SDS011;2209;48.982;8.406;2022-07-29T05:56:45;8.67;;;6.07;;
4389;SDS011;2209;48.982;8.406;2022-07-29T05:59:08;7.03;;;6.33;;
4389;SDS011;2209;48.982;8.406;2022-07-29T06:01:31;6.07;;;5.60;;
4389;SDS011;2209;48.982;8.406;2022-07-29T06:04:07;7.30;;;6.63;;
4389;SDS011;2209;48.982;8.406;2022-07-29T06:06:29;7.47;;;6.77;;
4389;SDS011;2209;48.982;8.406;2022-07-29T06:08:51;7.30;;;6.27;;
4389;SDS011;2209;48.982;8.406;2022-07-29T06:11:13;7.00;;;6.10;;
4389;SDS011;2209;48.982;8.406;2022-07-29T06:13:36;7.23;;;6.37;;
4389;SDS011;2209;48.982;8.406;2022-07-29T06:15:59;6.80;;;6.20;;
4389;SDS011;2209;48.982;8.406;2022-07-29T06:18:21;7.20;;;6.30;;
4389;SDS011;2209;48.982;8.406;2022-07-29T06:20:45;7.67;;;6.27;;
4389;SDS011;2209;48.982;8.406;2022-07-29T06:23:07;6.57;;;5.90;;
4389;SDS011;2209;48.982;8.406;2022-07-29T06:25:34;7.40;;;6.70;;
4389;SDS011;2209;48.982;8.406;2022-07-29T06:27:57;7.40;;;5.80;;
4389;SDS011;2209;48.982;8.406;2022-07-29T06:30:22;7.73;;;6.00;;
4389;SDS011;2209;48.982;8.406;2022-07-29T06:32:47;6.83;;;6.23;;
4389;SDS011;2209;48.982;8.406;2022-07-29T06:35:09;6.13;;;5.63;;
4389;SDS011;2209;48.982;8.406;2022-07-29T06:37:32;8.97;;;5.80;;
4389;SDS011;2209;48.982;8.406;2022-07-29T06:39:56;9.07;;;6.00;;
4389;SDS011;2209;48.982;8.406;2022-07-29T06:42:32;6.70;;;6.20;;
4389;SDS011;2209;48.982;8.406;2022-07-29T06:44:57;6.60;;;6.00;;
4389;SDS011;2209;48.982;8.406;2022-07-29T06:47:21;6.20;;;5.80;;
4389;SDS011;2209;48.982;8.406;2022-07-29T06:49:43;7.20;;;6.27;;
4389;SDS011;2209;48.982;8.406;2022-07-29T06:52:05;8.83;;;5.73;;
4389;SDS011;2209;48.982;8.406;2022-07-29T06:54:29;7.57;;;5.80;;
4389;SDS011;2209;48.982;8.406;2022-07-29T06:56:51;6.07;;;5.67;;
4389;SDS011;2209;48.982;8.406;2022-07-29T06:59:13;7.23;;;6.30;;
4389;SDS011;2209;48.982;8.406;2022-07-29T07:01:36;9.60;;;6.10;;
4389;SDS011;2209;48.982;8.406;2022-07-29T07:07:12;6.00;;;5.50;;
4389;SDS011;2209;48.982;8.406;2022-07-29T07:09:35;6.73;;;6.10;;
4389;SDS011;2209;48.982;8.406;2022-07-29T07:11:58;6.43;;;5.93;;
4389;SDS011;2209;48.982;8.406;2022-07-29T07:14:21;7.00;;;6.37;;
4389;SDS011;2209;48.982;8.406;2022-07-29T07:16:47;6.80;;;6.20;;
4389;SDS011;2209;48.982;8.406;2022-07-29T07:19:11;5.70;;;5.30;;
4389;SDS011;2209;48.982;8.406;2022-07-29T07:21:34;6.37;;;5.87;;
4389;SDS011;2209;48.982;8.406;2022-07-29T07:23:59;7.17;;;6.00;;
4389;SDS011;2209;48.982;8.406;2022-07-29T07:26:22;5.83;;;5.33;;
4389;SDS011;2209;48.982;8.406;2022-07-29T07:28:45;6.03;;;5.53;;
4389;SDS011;2209;48.982;8.406;2022-07-29T07:31:09;6.27;;;5.87;;
4389;SDS011;2209;48.982;8.406;2022-07-29T07:33:33;9.93;;;5.53;;
4389;SDS011;2209;48.982;8.406;2022-07-29T07:35:56;7.97;;;6.17;;
4389;SDS011;2209;48.982;8.406;2022-07-29T07:38:19;5.60;;;4.77;;
4389;SDS011;2209;48.982;8.406;2022-07-29T07:40:44;4.97;;;4.60;;
4389;SDS011;2209;48.982;8.406;2022-07-29T07:43:08;6.17;;;5.63;;
4389;SDS011;2209;48.982;8.406;2022-07-29T07:45:31;6.40;;;5.77;;
4389;SDS011;2209;48.982;8.406;2022-07-29T07:47:54;6.53;;;5.93;;
4389;SDS011;2209;48.982;8.406;2022-07-29T07:50:17;5.73;;;5.23;;
4389;SDS011;2209;48.982;8.406;2022-07-29T07:52:47;5.87;;;5.27;;
4389;SDS011;2209;48.982;8.406;2022-07-29T07:55:11;8.40;;;6.37;;
4389;SDS011;2209;48.982;8.406;2022-07-29T07:57:35;5.60;;;5.20;;
4389;SDS011;2209;48.982;8.406;2022-07-29T07:59:58;6.63;;;5.23;;
4389;SDS011;2209;48.982;8.406;2022-07-29T08:02:28;8.20;;;5.37;;
4389;SDS011;2209;48.982;8.406;2022-07-29T08:04:51;7.27;;;5.13;;
4389;SDS011;2209;48.982;8.406;2022-07-29T08:07:15;5.67;;;5.07;;
4389;SDS011;2209;48.982;8.406;2022-07-29T08:09:38;6.20;;;5.73;;
4389;SDS011;2209;48.982;8.406;2022-07-29T08:12:02;5.57;;;5.07;;
4389;SDS011;2209;48.982;8.406;2022-07-29T08:14:28;6.13;;;5.63;;
4389;SDS011;2209;48.982;8.406;2022-07-29T08:16:51;5.53;;;5.03;;
4389;SDS011;2209;48.982;8.406;2022-07-29T08:19:14;11.77;;;5.00;;
4389;SDS011;2209;48.982;8.406;2022-07-29T08:21:37;4.80;;;4.43;;
4389;SDS011;2209;48.982;8.406;2022-07-29T08:24:00;6.90;;;5.33;;
4389;SDS011;2209;48.982;8.406;2022-07-29T08:26:37;5.20;;;4.80;;
4389;SDS011;2209;48.982;8.406;2022-07-29T08:29:03;7.00;;;5.17;;
4389;SDS011;2209;48.982;8.406;2022-07-29T08:31:27;5.40;;;5.00;;
4389;SDS011;2209;48.982;8.406;2022-07-29T08:33:50;9.83;;;4.80;;
4389;SDS011;2209;48.982;8.406;2022-07-29T08:36:13;5.30;;;4.80;;
4389;SDS011;2209;48.982;8.406;2022-07-29T08:38:44;5.52;;;4.50;;
4389;SDS011;2209;48.982;8.406;2022-07-29T08:41:07;7.10;;;4.77;;
4389;SDS011;2209;48.982;8.406;2022-07-29T08:43:29;4.37;;;4.07;;
4389;SDS011;2209;48.982;8.406;2022-07-29T08:45:52;4.83;;;4.40;;
4389;SDS011;2209;48.982;8.406;2022-07-29T08:48:16;5.00;;;4.67;;
4389;SDS011;2209;48.982;8.406;2022-07-29T08:50:40;5.27;;;4.40;;
4389;SDS011;2209;48.982;8.406;2022-07-29T08:53:03;6.83;;;4.30;;
4389;SDS011;2209;48.982;8.406;2022-07-29T08:55:27;5.17;;;4.07;;
4389;SDS011;2209;48.982;8.406;2022-07-29T08:57:49;5.70;;;5.20;;
4389;SDS011;2209;48.982;8.406;2022-07-29T09:00:12;4.33;;;4.03;;
4389;SDS011;2209;48.982;8.406;2022-07-29T09:02:39;5.03;;;4.73;;
4389;SDS011;2209;48.982;8.406;2022-07-29T09:05:08;5.10;;;4.67;;
4389;SDS011;2209;48.982;8.406;2022-07-29T09:07:30;4.80;;;4.27;;
4389;SDS011;2209;48.982;8.406;2022-07-29T09:09:53;4.47;;;4.10;;
4389;SDS011;2209;48.982;8.406;2022-07-29T09:12:16;4.40;;;3.80;;
4389;SDS011;2209;48.982;8.406;2022-07-29T09:14:38;7.33;;;4.40;;
4389;SDS011;2209;48.982;8.406;2022-07-29T09:17:02;4.73;;;4.10;;
4389;SDS011;2209;48.982;8.406;2022-07-29T09:19:25;9.80;;;4.20;;
4389;SDS011;2209;48.982;8.406;2022-07-29T09:21:50;3.77;;;3.47;;
4389;SDS011;2209;48.982;8.406;2022-07-29T09:24:18;4.20;;;3.90;;
4389;SDS011;2209;48.982;8.406;2022-07-29T09:26:40;6.17;;;4.43;;
4389;SDS011;2209;48.982;8.406;2022-07-29T09:29:10;4.40;;;4.10;;
4389;SDS011;2209;48.982;8.406;2022-07-29T09:31:33;6.63;;;4.30;;
4389;SDS011;2209;48.982;8.406;2022-07-29T09:34:01;5.50;;;4.30;;
4389;SDS011;2209;48.982;8.406;2022-07-29T09:36:23;4.80;;;4.40;;
4389;SDS011;2209;48.982;8.406;2022-07-29T09:38:48;7.33;;;5.10;;
4389;SDS011;2209;48.982;8.406;2022-07-29T09:41:19;11.10;;;5.13;;
4389;SDS011;2209;48.982;8.406;2022-07-29T09:43:41;5.60;;;4.43;;
4389;SDS011;2209;48.982;8.406;2022-07-29T09:46:15;5.37;;;4.80;;
4389;SDS011;2209;48.982;8.406;2022-07-29T09:48:37;5.50;;;4.30;;
4389;SDS011;2209;48.982;8.406;2022-07-29T09:50:59;6.80;;;4.13;;
4389;SDS011;2209;48.982;8.406;2022-07-29T09:53:29;5.33;;;4.33;;
4389;SDS011;2209;48.982;8.406;2022-07-29T09:55:54;7.97;;;4.00;;
4389;SDS011;2209;48.982;8.406;2022-07-29T09:58:16;4.50;;;4.10;;
4389;SDS011;2209;48.982;8.406;2022-07-29T10:00:41;8.00;;;4.70;;
4389;SDS011;2209;48.982;8.406;2022-07-29T10:03:09;6.23;;;4.20;;
4389;SDS011;2209;48.982;8.406;2022-07-29T10:05:32;7.33;;;4.50;;
4389;SDS011;2209;48.982;8.406;2022-07-29T10:07:56;4.87;;;4.47;;
4389;SDS011;2209;48.982;8.406;2022-07-29T10:10:19;6.60;;;5.00;;
4389;SDS011;2209;48.982;8.406;2022-07-29T10:12:51;4.67;;;4.27;;
4389;SDS011;2209;48.982;8.406;2022-07-29T10:15:15;4.90;;;4.50;;
4389;SDS011;2209;48.982;8.406;2022-07-29T10:17:38;5.03;;;4.37;;
4389;SDS011;2209;48.982;8.406;2022-07-29T10:20:01;5.33;;;4.70;;
4389;SDS011;2209;48.982;8.406;2022-07-29T10:25:45;9.93;;;4.30;;
4389;SDS011;2209;48.982;8.406;2022-07-29T10:28:09;6.07;;;4.87;;
4389;SDS011;2209;48.982;8.406;2022-07-29T10:30:32;7.53;;;4.80;;
4389;SDS011;2209;48.982;8.406;2022-07-29T10:33:05;5.00;;;4.70;;
4389;SDS011;2209;48.982;8.406;2022-07-29T10:38:30;4.60;;;4.30;;
4389;SDS011;2209;48.982;8.406;2022-07-29T10:44:27;4.80;;;4.50;;
4389;SDS011;2209;48.982;8.406;2022-07-29T10:46:50;5.17;;;4.53;;
4389;SDS011;2209;48.982;8.406;2022-07-29T10:49:16;4.73;;;3.53;;
4389;SDS011;2209;48.982;8.406;2022-07-29T10:51:52;4.57;;;4.23;;
4389;SDS011;2209;48.982;8.406;2022-07-29T10:54:35;4.47;;;3.87;;
4389;SDS011;2209;48.982;8.406;2022-07-29T10:57:10;4.70;;;3.43;;
4389;SDS011;2209;48.982;8.406;2022-07-29T10:59:35;4.07;;;3.80;;
4389;SDS011;2209;48.982;8.406;2022-07-29T11:01:57;5.40;;;3.93;;
4389;SDS011;2209;48.982;8.406;2022-07-29T11:07:17;3.53;;;3.17;;
4389;SDS011;2209;48.982;8.406;2022-07-29T11:09:39;3.33;;;3.13;;
4389;SDS011;2209;48.982;8.406;2022-07-29T11:15:21;4.40;;;3.20;;
4389;SDS011;2209;48.982;8.406;2022-07-29T11:18:06;6.30;;;3.60;;
4389;SDS011;2209;48.982;8.406;2022-07-29T11:20:49;3.70;;;3.03;;
4389;SDS011;2209;48.982;8.406;2022-07-29T11:23:20;3.90;;;3.63;;
4389;SDS011;2209;48.982;8.406;2022-07-29T11:28:54;3.70;;;3.40;;
4389;SDS011;2209;48.982;8.406;2022-07-29T11:34:16;3.50;;;3.30;;
4389;SDS011;2209;48.982;8.406;2022-07-29T11:36:51;5.80;;;3.43;;
4389;SDS011;2209;48.982;8.406;2022-07-29T11:42:43;5.40;;;3.63;;
4389;SDS011;2209;48.982;8.406;2022-07-29T11:45:08;4.10;;;3.77;;
4389;SDS011;2209;48.982;8.406;2022-07-29T11:47:52;3.00;;;2.80;;
4389;SDS011;2209;48.982;8.406;2022-07-29T11:53:00;4.83;;;3.77;;
4389;SDS011;2209;48.982;8.406;2022-07-29T11:55:24;8.53;;;3.97;;
4389;SDS011;2209;48.982;8.406;2022-07-29T11:57:48;4.07;;;3.77;;
4389;SDS011;2209;48.982;8.406;2022-07-29T12:03:22;5.50;;;3.00;;
4389;SDS011;2209;48.982;8.406;2022-07-29T12:05:46;3.33;;;2.80;;
4389;SDS011;2209;48.982;8.406;2022-07-29T12:08:12;3.80;;;3.40;;
4389;SDS011;2209;48.982;8.406;2022-07-29T12:10:36;6.10;;;3.63;;
4389;SDS011;2209;48.982;8.406;2022-07-29T12:13:02;3.90;;;3.60;;
4389;SDS011;2209;48.982;8.406;2022-07-29T12:15:25;3.30;;;3.00;;
4389;SDS011;2209;48.982;8.406;2022-07-29T12:17:49;3.63;;;3.33;;
4389;SDS011;2209;48.982;8.406;2022-07-29T12:20:13;3.57;;;3.47;;
4389;SDS011;2209;48.982;8.406;2022-07-29T12:22:45;3.13;;;2.93;;
4389;SDS011;2209;48.982;8.406;2022-07-29T12:25:10;3.47;;;3.20;;
4389;SDS011;2209;48.982;8.406;2022-07-29T12:27:35;3.50;;;3.20;;
4389;SDS011;2209;48.982;8.406;2022-07-29T12:33:00;3.30;;;3.00;;
4389;SDS011;2209;48.982;8.406;2022-07-29T12:35:26;4.73;;;3.47;;
4389;SDS011;2209;48.982;8.406;2022-07-29T12:37:49;3.20;;;3.00;;
4389;SDS011;2209;48.982;8.406;2022-07-29T12:40:14;4.60;;;3.30;;
4389;SDS011;2209;48.982;8.406;2022-07-29T12:42:38;3.53;;;3.33;;
4389;SDS011;2209;48.982;8.406;2022-07-29T12:45:02;3.63;;;3.33;;
4389;SDS011;2209;48.982;8.406;2022-07-29T12:47:26;3.80;;;2.90;;
4389;SDS011;2209;48.982;8.406;2022-07-29T12:49:49;4.47;;;3.63;;
4389;SDS011;2209;48.982;8.406;2022-07-29T12:52:31;3.80;;;3.07;;
4389;SDS011;2209;48.982;8.406;2022-07-29T12:54:56;3.37;;;3.17;;
4389;SDS011;2209;48.982;8.406;2022-07-29T12:57:19;3.60;;;3.23;;
4389;SDS011;2209;48.982;8.406;2022-07-29T12:59:42;3.60;;;3.00;;
4389;SDS011;2209;48.982;8.406;2022-07-29T13:02:05;3.57;;;2.90;;
4389;SDS011;2209;48.982;8.406;2022-07-29T13:04:29;3.10;;;2.90;;
4389;SDS011;2209;48.982;8.406;2022-07-29T13:06:57;3.37;;;2.87;;
4389;SDS011;2209;48.982;8.406;2022-07-29T13:09:23;6.00;;;3.57;;
4389;SDS011;2209;48.982;8.406;2022-07-29T13:12:00;3.10;;;2.90;;
4389;SDS011;2209;48.982;8.406;2022-07-29T13:14:29;2.80;;;2.60;;
4389;SDS011;2209;48.982;8.406;2022-07-29T13:17:00;5.40;;;3.20;;
4389;SDS011;2209;48.982;8.406;2022-07-29T13:19:32;3.20;;;2.90;;
4389;SDS011;2209;48.982;8.406;2022-07-29T13:21:57;3.27;;;2.93;;
4389;SDS011;2209;48.982;8.406;2022-07-29T13:24:22;2.70;;;2.50;;
4389;SDS011;2209;48.982;8.406;2022-07-29T13:26:46;3.60;;;3.30;;
4389;SDS011;2209;48.982;8.406;2022-07-29T13:29:09;3.70;;;3.40;;
4389;SDS011;2209;48.982;8.406;2022-07-29T13:31:31;2.77;;;2.67;;
4389;SDS011;2209;48.982;8.406;2022-07-29T13:33:53;3.90;;;2.80;;
4389;SDS011;2209;48.982;8.406;2022-07-29T13:36:16;2.63;;;2.43;;
4389;SDS011;2209;48.982;8.406;2022-07-29T13:38:38;4.73;;;2.80;;
4389;SDS011;2209;48.982;8.406;2022-07-29T13:41:02;3.03;;;2.83;;
4389;SDS011;2209;48.982;8.406;2022-07-29T13:43:24;4.40;;;2.60;;
4389;SDS011;2209;48.982;8.406;2022-07-29T13:45:46;8.53;;;2.60;;
4389;SDS011;2209;48.982;8.406;2022-07-29T13:48:08;2.80;;;2.47;;
4389;SDS011;2209;48.982;8.406;2022-07-29T13:50:31;2.50;;;2.40;;
4389;SDS011;2209;48.982;8.406;2022-07-29T13:52:53;4.80;;;2.27;;
4389;SDS011;2209;48.982;8.406;2022-07-29T13:58:35;3.03;;;2.83;;
4389;SDS011;2209;48.982;8.406;2022-07-29T14:00:58;9.27;;;2.77;;
4389;SDS011;2209;48.982;8.406;2022-07-29T14:03:21;2.67;;;2.50;;
4389;SDS011;2209;48.982;8.406;2022-07-29T14:05:45;3.27;;;3.00;;
4389;SDS011;2209;48.982;8.406;2022-07-29T14:08:07;2.97;;;2.77;;
4389;SDS011;2209;48.982;8.406;2022-07-29T14:10:30;2.80;;;2.60;;
4389;SDS011;2209;48.982;8.406;2022-07-29T14:12:53;7.53;;;3.07;;
4389;SDS011;2209;48.982;8.406;2022-07-29T14:15:18;4.23;;;2.73;;
4389;SDS011;2209;48.982;8.406;2022-07-29T14:17:42;2.77;;;2.57;;
4389;SDS011;2209;48.982;8.406;2022-07-29T14:20:05;2.87;;;2.67;;
4389;SDS011;2209;48.982;8.406;2022-07-29T14:22:29;2.70;;;2.30;;
4389;SDS011;2209;48.982;8.406;2022-07-29T14:24:52;3.97;;;2.70;;
4389;SDS011;2209;48.982;8.406;2022-07-29T14:27:15;3.00;;;2.80;;
4389;SDS011;2209;48.982;8.406;2022-07-29T14:29:38;3.30;;;2.80;;
4389;SDS011;2209;48.982;8.406;2022-07-29T14:32:02;3.97;;;2.30;;
4389;SDS011;2209;48.982;8.406;2022-07-29T14:34:26;4.90;;;2.67;;
4389;SDS011;2209;48.982;8.406;2022-07-29T14:36:49;3.63;;;2.87;;
4389;SDS011;2209;48.982;8.406;2022-07-29T14:39:15;2.60;;;2.40;;
4389;SDS011;2209;48.982;8.406;2022-07-29T14:41:39;3.03;;;2.20;;
4389;SDS011;2209;48.982;8.406;2022-07-29T14:44:02;3.83;;;2.30;;
4389;SDS011;2209;48.982;8.406;2022-07-29T14:46:25;2.53;;;2.33;;
4389;SDS011;2209;48.982;8.406;2022-07-29T14:48:49;2.90;;;2.53;;
4389;SDS011;2209;48.982;8.406;2022-07-29T14:51:12;2.83;;;2.37;;
4389;SDS011;2209;48.982;8.406;2022-07-29T14:53:34;4.83;;;2.53;;
4389;SDS011;2209;48.982;8.406;2022-07-29T14:55:59;6.97;;;2.47;;
4389;SDS011;2209;48.982;8.406;2022-07-29T14:58:21;3.30;;;3.00;;
4389;SDS011;2209;48.982;8.406;2022-07-29T15:00:43;3.23;;;3.03;;
4389;SDS011;2209;48.982;8.406;2022-07-29T15:03:05;4.60;;;2.40;;
4389;SDS011;2209;48.982;8.406;2022-07-29T15:05:31;2.47;;;2.27;;
4389;SDS011;2209;48.982;8.406;2022-07-29T15:07:53;3.00;;;2.70;;
4389;SDS011;2209;48.982;8.406;2022-07-29T15:10:15;11.13;;;2.93;;
4389;SDS011;2209;48.982;8.406;2022-07-29T15:12:38;2.90;;;2.73;;
4389;SDS011;2209;48.982;8.406;2022-07-29T15:15:00;3.40;;;2.20;;
4389;SDS011;2209;48.982;8.406;2022-07-29T15:17:22;5.53;;;3.00;;
4389;SDS011;2209;48.982;8.406;2022-07-29T15:19:45;5.03;;;3.37;;
4389;SDS011;2209;48.982;8.406;2022-07-29T15:22:08;2.30;;;2.20;;
4389;SDS011;2209;48.982;8.406;2022-07-29T15:24:30;3.53;;;2.60;;
4389;SDS011;2209;48.982;8.406;2022-07-29T15:26:53;2.53;;;2.10;;
4389;SDS011;2209;48.982;8.406;2022-07-29T15:29:15;2.20;;;2.10;;
4389;SDS011;2209;48.982;8.406;2022-07-29T15:31:37;2.70;;;2.30;;
4389;SDS011;2209;48.982;8.406;2022-07-29T15:33:59;2.70;;;2.30;;
4389;SDS011;2209;48.982;8.406;2022-07-29T15:36:22;3.63;;;2.13;;
4389;SDS011;2209;48.982;8.406;2022-07-29T15:38:45;4.87;;;2.60;;
4389;SDS011;2209;48.982;8.406;2022-07-29T15:41:07;3.30;;;2.20;;
4389;SDS011;2209;48.982;8.406;2022-07-29T15:43:30;2.60;;;2.37;;
4389;SDS011;2209;48.982;8.406;2022-07-29T15:45:52;2.23;;;2.03;;